sensor_id;sensor_type;location;lat;lon;timestamp;P1;durP1;ratioP1;P2;durP2;ratioP2
20363;SDS011;10340;53.664;9.908;2023-03-01T00:01:14;0.70;;;0.70;;
20363;SDS011;10340;53.664;9.908;2023-03-01T00:03:42;0.60;;;0.60;;
20363;SDS011;10340;53.664;9.908;2023-03-01T00:06:10;0.70;;;0.70;;
20363;SDS011;10340;53.664;9.908;2023-03-01T00:08:38;0.77;;;0.77;;
20363;SDS011;10340;53.664;9.908;2023-03-01T00:11:06;0.70;;;0.70;;
20363;SDS011;10340;53.664;9.908;2023-03-01T00:13:35;0.57;;;0.57;;
20363;SDS011;10340;53.664;9.908;2023-03-01T00:16:02;0.60;;;0.60;;
20363;SDS011;10340;53.664;9.908;2023-03-01T00:18:31;0.60;;;0.60;;
20363;SDS011;10340;53.664;9.908;2023-03-01T00:20:59;0.60;;;0.60;;
20363;SDS011;10340;53.664;9.908;2023-03-01T00:23:29;0.60;;;0.60;;
20363;SDS011;10340;53.664;9.908;2023-03-01T00:25:56;0.50;;;0.50;;
20363;SDS011;10340;53.664;9.908;2023-03-01T00:28:23;0.67;;;0.67;;
20363;SDS011;10340;53.664;9.908;2023-03-01T00:30:50;0.70;;;0.70;;
20363;SDS011;10340;53.664;9.908;2023-03-01T00:33:17;0.70;;;0.70;;
20363;SDS011;10340;53.664;9.908;2023-03-01T00:35:45;0.70;;;0.70;;
20363;SDS011;10340;53.664;9.908;2023-03-01T00:38:12;0.70;;;0.70;;
20363;SDS011;10340;53.664;9.908;2023-03-01T00:40:40;0.73;;;0.73;;
20363;SDS011;10340;53.664;9.908;2023-03-01T00:43:09;0.77;;;0.77;;
20363;SDS011;10340;53.664;9.908;2023-03-01T00:45:36;0.70;;;0.70;;
20363;SDS011;10340;53.664;9.908;2023-03-01T00:48:03;1.00;;;1.00;;
20363;SDS011;10340;53.664;9.908;2023-03-01T00:50:31;0.70;;;0.70;;
20363;SDS011;10340;53.664;9.908;2023-03-01T00:52:58;0.70;;;0.70;;
20363;SDS011;10340;53.664;9.908;2023-03-01T00:55:25;0.60;;;0.60;;
20363;SDS011;10340;53.664;9.908;2023-03-01T00:57:54;0.77;;;0.77;;
20363;SDS011;10340;53.664;9.908;2023-03-01T01:00:21;0.80;;;0.80;;
20363;SDS011;10340;53.664;9.908;2023-03-01T01:02:48;0.50;;;0.50;;
20363;SDS011;10340;53.664;9.908;2023-03-01T01:05:15;0.87;;;0.87;;
20363;SDS011;10340;53.664;9.908;2023-03-01T01:07:45;0.67;;;0.67;;
20363;SDS011;10340;53.664;9.908;2023-03-01T01:10:12;0.67;;;0.67;;
20363;SDS011;10340;53.664;9.908;2023-03-01T01:12:42;0.50;;;0.50;;
20363;SDS011;10340;53.664;9.908;2023-03-01T01:15:11;0.80;;;0.80;;
20363;SDS011;10340;53.664;9.908;2023-03-01T01:17:40;0.60;;;0.60;;
20363;SDS011;10340;53.664;9.908;2023-03-01T01:20:08;0.60;;;0.60;;
20363;SDS011;10340;53.664;9.908;2023-03-01T01:22:36;0.73;;;0.73;;
20363;SDS011;10340;53.664;9.908;2023-03-01T01:25:03;0.83;;;0.83;;
20363;SDS011;10340;53.664;9.908;2023-03-01T01:27:30;0.60;;;0.60;;
20363;SDS011;10340;53.664;9.908;2023-03-01T01:29:57;0.70;;;0.70;;
20363;SDS011;10340;53.664;9.908;2023-03-01T01:32:25;0.60;;;0.60;;
20363;SDS011;10340;53.664;9.908;2023-03-01T01:34:52;0.60;;;0.60;;
20363;SDS011;10340;53.664;9.908;2023-03-01T01:37:19;0.60;;;0.60;;
20363;SDS011;10340;53.664;9.908;2023-03-01T01:39:47;0.70;;;0.70;;
20363;SDS011;10340;53.664;9.908;2023-03-01T01:42:14;0.90;;;0.90;;
20363;SDS011;10340;53.664;9.908;2023-03-01T01:44:44;0.73;;;0.73;;
20363;SDS011;10340;53.664;9.908;2023-03-01T01:47:13;0.80;;;0.80;;
20363;SDS011;10340;53.664;9.908;2023-03-01T01:49:45;0.70;;;0.70;;
20363;SDS011;10340;53.664;9.908;2023-03-01T01:52:16;0.77;;;0.77;;
20363;SDS011;10340;53.664;9.908;2023-03-01T01:54:47;0.70;;;0.70;;
20363;SDS011;10340;53.664;9.908;2023-03-01T01:57:21;0.80;;;0.80;;
20363;SDS011;10340;53.664;9.908;2023-03-01T01:59:52;0.70;;;0.70;;
20363;SDS011;10340;53.664;9.908;2023-03-01T02:02:21;0.70;;;0.70;;
20363;SDS011;10340;53.664;9.908;2023-03-01T02:04:49;0.80;;;0.80;;
20363;SDS011;10340;53.664;9.908;2023-03-01T02:07:25;0.67;;;0.67;;
20363;SDS011;10340;53.664;9.908;2023-03-01T02:09:52;0.70;;;0.70;;
20363;SDS011;10340;53.664;9.908;2023-03-01T02:12:20;0.60;;;0.60;;
20363;SDS011;10340;53.664;9.908;2023-03-01T02:14:50;0.90;;;0.90;;
20363;SDS011;10340;53.664;9.908;2023-03-01T02:17:17;0.60;;;0.60;;
20363;SDS011;10340;53.664;9.908;2023-03-01T02:19:48;0.70;;;0.70;;
20363;SDS011;10340;53.664;9.908;2023-03-01T02:22:25;0.60;;;0.60;;
20363;SDS011;10340;53.664;9.908;2023-03-01T02:24:58;0.70;;;0.70;;
20363;SDS011;10340;53.664;9.908;2023-03-01T02:27:45;0.70;;;0.70;;
20363;SDS011;10340;53.664;9.908;2023-03-01T02:30:23;0.90;;;0.90;;
20363;SDS011;10340;53.664;9.908;2023-03-01T02:32:53;0.70;;;0.70;;
20363;SDS011;10340;53.664;9.908;2023-03-01T02:35:27;0.80;;;0.80;;
20363;SDS011;10340;53.664;9.908;2023-03-01T02:37:58;0.77;;;0.77;;
20363;SDS011;10340;53.664;9.908;2023-03-01T02:40:25;0.60;;;0.60;;
20363;SDS011;10340;53.664;9.908;2023-03-01T02:42:56;0.70;;;0.70;;
20363;SDS011;10340;53.664;9.908;2023-03-01T02:45:26;0.73;;;0.73;;
20363;SDS011;10340;53.664;9.908;2023-03-01T02:47:53;0.83;;;0.83;;
20363;SDS011;10340;53.664;9.908;2023-03-01T02:50:31;0.70;;;0.70;;
20363;SDS011;10340;53.664;9.908;2023-03-01T02:53:15;0.90;;;0.90;;
20363;SDS011;10340;53.664;9.908;2023-03-01T02:55:48;0.87;;;0.87;;
20363;SDS011;10340;53.664;9.908;2023-03-01T02:58:15;0.80;;;0.80;;
20363;SDS011;10340;53.664;9.908;2023-03-01T03:00:44;0.77;;;0.77;;
20363;SDS011;10340;53.664;9.908;2023-03-01T03:03:12;0.70;;;0.70;;
20363;SDS011;10340;53.664;9.908;2023-03-01T03:05:41;0.70;;;0.70;;
20363;SDS011;10340;53.664;9.908;2023-03-01T03:08:08;0.70;;;0.70;;
20363;SDS011;10340;53.664;9.908;2023-03-01T03:10:36;0.50;;;0.50;;
20363;SDS011;10340;53.664;9.908;2023-03-01T03:13:06;0.60;;;0.60;;
20363;SDS011;10340;53.664;9.908;2023-03-01T03:15:34;0.80;;;0.80;;
20363;SDS011;10340;53.664;9.908;2023-03-01T03:18:06;0.70;;;0.70;;
20363;SDS011;10340;53.664;9.908;2023-03-01T03:20:35;0.77;;;0.77;;
20363;SDS011;10340;53.664;9.908;2023-03-01T03:23:03;0.70;;;0.70;;
20363;SDS011;10340;53.664;9.908;2023-03-01T03:25:30;0.70;;;0.70;;
20363;SDS011;10340;53.664;9.908;2023-03-01T03:27:57;0.80;;;0.80;;
20363;SDS011;10340;53.664;9.908;2023-03-01T03:30:24;0.80;;;0.80;;
20363;SDS011;10340;53.664;9.908;2023-03-01T03:32:52;0.60;;;0.60;;
20363;SDS011;10340;53.664;9.908;2023-03-01T03:35:25;0.63;;;0.63;;
20363;SDS011;10340;53.664;9.908;2023-03-01T03:37:55;0.70;;;0.70;;
20363;SDS011;10340;53.664;9.908;2023-03-01T03:40:29;0.60;;;0.60;;
20363;SDS011;10340;53.664;9.908;2023-03-01T03:42:57;0.70;;;0.70;;
20363;SDS011;10340;53.664;9.908;2023-03-01T03:45:24;0.60;;;0.60;;
20363;SDS011;10340;53.664;9.908;2023-03-01T03:47:51;0.70;;;0.70;;
20363;SDS011;10340;53.664;9.908;2023-03-01T03:50:18;0.77;;;0.77;;
20363;SDS011;10340;53.664;9.908;2023-03-01T03:52:46;0.70;;;0.70;;
20363;SDS011;10340;53.664;9.908;2023-03-01T03:55:13;0.73;;;0.73;;
20363;SDS011;10340;53.664;9.908;2023-03-01T03:57:44;0.70;;;0.70;;
20363;SDS011;10340;53.664;9.908;2023-03-01T04:00:17;0.60;;;0.60;;
20363;SDS011;10340;53.664;9.908;2023-03-01T04:02:45;0.70;;;0.70;;
20363;SDS011;10340;53.664;9.908;2023-03-01T04:05:14;0.80;;;0.80;;
20363;SDS011;10340;53.664;9.908;2023-03-01T04:07:42;0.73;;;0.73;;
20363;SDS011;10340;53.664;9.908;2023-03-01T04:10:12;0.60;;;0.60;;
20363;SDS011;10340;53.664;9.908;2023-03-01T04:12:41;0.50;;;0.50;;
20363;SDS011;10340;53.664;9.908;2023-03-01T04:15:09;0.70;;;0.70;;
20363;SDS011;10340;53.664;9.908;2023-03-01T04:17:39;0.70;;;0.70;;
20363;SDS011;10340;53.664;9.908;2023-03-01T04:20:07;0.60;;;0.60;;
20363;SDS011;10340;53.664;9.908;2023-03-01T04:22:36;0.60;;;0.60;;
20363;SDS011;10340;53.664;9.908;2023-03-01T04:25:03;0.70;;;0.70;;
20363;SDS011;10340;53.664;9.908;2023-03-01T04:27:32;0.70;;;0.70;;
20363;SDS011;10340;53.664;9.908;2023-03-01T04:29:59;0.60;;;0.60;;
20363;SDS011;10340;53.664;9.908;2023-03-01T04:32:26;0.57;;;0.57;;
20363;SDS011;10340;53.664;9.908;2023-03-01T04:34:53;0.70;;;0.70;;
20363;SDS011;10340;53.664;9.908;2023-03-01T04:37:20;0.73;;;0.73;;
20363;SDS011;10340;53.664;9.908;2023-03-01T04:39:49;0.70;;;0.70;;
20363;SDS011;10340;53.664;9.908;2023-03-01T04:42:16;0.80;;;0.80;;
20363;SDS011;10340;53.664;9.908;2023-03-01T04:44:44;0.77;;;0.77;;
20363;SDS011;10340;53.664;9.908;2023-03-01T04:47:12;0.67;;;0.67;;
20363;SDS011;10340;53.664;9.908;2023-03-01T04:49:39;0.63;;;0.63;;
20363;SDS011;10340;53.664;9.908;2023-03-01T04:52:07;0.77;;;0.77;;
20363;SDS011;10340;53.664;9.908;2023-03-01T04:54:34;0.70;;;0.70;;
20363;SDS011;10340;53.664;9.908;2023-03-01T04:57:02;0.50;;;0.50;;
20363;SDS011;10340;53.664;9.908;2023-03-01T04:59:29;0.60;;;0.60;;
20363;SDS011;10340;53.664;9.908;2023-03-01T05:01:58;0.63;;;0.63;;
20363;SDS011;10340;53.664;9.908;2023-03-01T05:04:25;0.70;;;0.70;;
20363;SDS011;10340;53.664;9.908;2023-03-01T05:06:53;0.60;;;0.60;;
20363;SDS011;10340;53.664;9.908;2023-03-01T05:09:21;0.80;;;0.80;;
20363;SDS011;10340;53.664;9.908;2023-03-01T05:11:47;0.60;;;0.60;;
20363;SDS011;10340;53.664;9.908;2023-03-01T05:14:16;0.77;;;0.77;;
20363;SDS011;10340;53.664;9.908;2023-03-01T05:16:43;0.67;;;0.67;;
20363;SDS011;10340;53.664;9.908;2023-03-01T05:19:11;0.73;;;0.73;;
20363;SDS011;10340;53.664;9.908;2023-03-01T05:21:40;0.60;;;0.60;;
20363;SDS011;10340;53.664;9.908;2023-03-01T05:24:21;0.70;;;0.70;;
20363;SDS011;10340;53.664;9.908;2023-03-01T05:26:48;0.60;;;0.60;;
20363;SDS011;10340;53.664;9.908;2023-03-01T05:29:17;0.63;;;0.63;;
20363;SDS011;10340;53.664;9.908;2023-03-01T05:31:49;0.60;;;0.60;;
20363;SDS011;10340;53.664;9.908;2023-03-01T05:34:18;0.50;;;0.50;;
20363;SDS011;10340;53.664;9.908;2023-03-01T05:36:49;0.60;;;0.60;;
20363;SDS011;10340;53.664;9.908;2023-03-01T05:39:18;0.63;;;0.63;;
20363;SDS011;10340;53.664;9.908;2023-03-01T05:41:46;0.70;;;0.70;;
20363;SDS011;10340;53.664;9.908;2023-03-01T05:44:13;0.70;;;0.70;;
20363;SDS011;10340;53.664;9.908;2023-03-01T05:46:41;0.50;;;0.50;;
20363;SDS011;10340;53.664;9.908;2023-03-01T05:49:07;0.70;;;0.70;;
20363;SDS011;10340;53.664;9.908;2023-03-01T05:51:36;0.60;;;0.60;;
20363;SDS011;10340;53.664;9.908;2023-03-01T05:54:03;0.70;;;0.70;;
20363;SDS011;10340;53.664;9.908;2023-03-01T05:56:32;0.60;;;0.60;;
20363;SDS011;10340;53.664;9.908;2023-03-01T05:59:00;0.50;;;0.50;;
20363;SDS011;10340;53.664;9.908;2023-03-01T06:01:27;0.53;;;0.53;;
20363;SDS011;10340;53.664;9.908;2023-03-01T06:03:54;0.67;;;0.67;;
20363;SDS011;10340;53.664;9.908;2023-03-01T06:06:21;0.83;;;0.83;;
20363;SDS011;10340;53.664;9.908;2023-03-01T06:08:50;0.60;;;0.60;;
20363;SDS011;10340;53.664;9.908;2023-03-01T06:11:18;0.63;;;0.63;;
20363;SDS011;10340;53.664;9.908;2023-03-01T06:13:45;0.50;;;0.50;;
20363;SDS011;10340;53.664;9.908;2023-03-01T06:16:12;0.60;;;0.60;;
20363;SDS011;10340;53.664;9.908;2023-03-01T06:18:40;0.50;;;0.50;;
20363;SDS011;10340;53.664;9.908;2023-03-01T06:21:07;0.60;;;0.60;;
20363;SDS011;10340;53.664;9.908;2023-03-01T06:23:35;0.70;;;0.70;;
20363;SDS011;10340;53.664;9.908;2023-03-01T06:26:06;0.60;;;0.60;;
20363;SDS011;10340;53.664;9.908;2023-03-01T06:28:33;0.50;;;0.50;;
20363;SDS011;10340;53.664;9.908;2023-03-01T06:31:01;0.50;;;0.50;;
20363;SDS011;10340;53.664;9.908;2023-03-01T06:33:28;0.60;;;0.60;;
20363;SDS011;10340;53.664;9.908;2023-03-01T06:35:55;0.57;;;0.57;;
20363;SDS011;10340;53.664;9.908;2023-03-01T06:38:22;0.53;;;0.53;;
20363;SDS011;10340;53.664;9.908;2023-03-01T06:40:51;0.70;;;0.70;;
20363;SDS011;10340;53.664;9.908;2023-03-01T06:43:20;0.60;;;0.60;;
20363;SDS011;10340;53.664;9.908;2023-03-01T06:45:48;0.60;;;0.60;;
20363;SDS011;10340;53.664;9.908;2023-03-01T06:48:15;0.70;;;0.70;;
20363;SDS011;10340;53.664;9.908;2023-03-01T06:50:42;0.57;;;0.57;;
20363;SDS011;10340;53.664;9.908;2023-03-01T06:53:09;0.60;;;0.60;;
20363;SDS011;10340;53.664;9.908;2023-03-01T06:55:36;0.50;;;0.50;;
20363;SDS011;10340;53.664;9.908;2023-03-01T06:58:03;0.50;;;0.50;;
20363;SDS011;10340;53.664;9.908;2023-03-01T07:00:31;0.50;;;0.50;;
20363;SDS011;10340;53.664;9.908;2023-03-01T07:02:59;0.60;;;0.60;;
20363;SDS011;10340;53.664;9.908;2023-03-01T07:05:27;0.50;;;0.50;;
20363;SDS011;10340;53.664;9.908;2023-03-01T07:07:54;0.40;;;0.40;;
20363;SDS011;10340;53.664;9.908;2023-03-01T07:10:22;0.50;;;0.50;;
20363;SDS011;10340;53.664;9.908;2023-03-01T07:12:49;0.50;;;0.50;;
20363;SDS011;10340;53.664;9.908;2023-03-01T07:15:16;0.50;;;0.50;;
20363;SDS011;10340;53.664;9.908;2023-03-01T07:17:44;0.70;;;0.70;;
20363;SDS011;10340;53.664;9.908;2023-03-01T07:20:13;0.47;;;0.47;;
20363;SDS011;10340;53.664;9.908;2023-03-01T07:22:40;0.43;;;0.43;;
20363;SDS011;10340;53.664;9.908;2023-03-01T07:25:08;0.40;;;0.40;;
20363;SDS011;10340;53.664;9.908;2023-03-01T07:27:35;0.50;;;0.50;;
20363;SDS011;10340;53.664;9.908;2023-03-01T07:30:02;0.50;;;0.50;;
20363;SDS011;10340;53.664;9.908;2023-03-01T07:32:30;0.50;;;0.50;;
20363;SDS011;10340;53.664;9.908;2023-03-01T07:34:58;0.40;;;0.40;;
20363;SDS011;10340;53.664;9.908;2023-03-01T07:37:25;0.50;;;0.50;;
20363;SDS011;10340;53.664;9.908;2023-03-01T07:39:52;0.50;;;0.50;;
20363;SDS011;10340;53.664;9.908;2023-03-01T07:42:19;0.50;;;0.50;;
20363;SDS011;10340;53.664;9.908;2023-03-01T07:44:46;0.40;;;0.40;;
20363;SDS011;10340;53.664;9.908;2023-03-01T07:47:13;0.60;;;0.60;;
20363;SDS011;10340;53.664;9.908;2023-03-01T07:49:40;0.50;;;0.50;;
20363;SDS011;10340;53.664;9.908;2023-03-01T07:52:10;0.50;;;0.50;;
20363;SDS011;10340;53.664;9.908;2023-03-01T07:54:37;0.50;;;0.50;;
20363;SDS011;10340;53.664;9.908;2023-03-01T07:57:04;0.50;;;0.50;;
20363;SDS011;10340;53.664;9.908;2023-03-01T07:59:31;0.53;;;0.53;;
20363;SDS011;10340;53.664;9.908;2023-03-01T08:01:58;0.50;;;0.50;;
20363;SDS011;10340;53.664;9.908;2023-03-01T08:04:25;0.50;;;0.50;;
20363;SDS011;10340;53.664;9.908;2023-03-01T08:06:52;0.50;;;0.50;;
20363;SDS011;10340;53.664;9.908;2023-03-01T08:09:21;0.60;;;0.60;;
20363;SDS011;10340;53.664;9.908;2023-03-01T08:11:48;0.40;;;0.40;;
20363;SDS011;10340;53.664;9.908;2023-03-01T08:14:15;0.43;;;0.43;;
20363;SDS011;10340;53.664;9.908;2023-03-01T08:16:43;0.40;;;0.40;;
20363;SDS011;10340;53.664;9.908;2023-03-01T08:19:10;0.57;;;0.57;;
20363;SDS011;10340;53.664;9.908;2023-03-01T08:21:38;0.47;;;0.47;;
20363;SDS011;10340;53.664;9.908;2023-03-01T08:24:06;0.50;;;0.50;;
20363;SDS011;10340;53.664;9.908;2023-03-01T08:26:36;0.40;;;0.40;;
20363;SDS011;10340;53.664;9.908;2023-03-01T08:29:03;0.40;;;0.40;;
20363;SDS011;10340;53.664;9.908;2023-03-01T08:31:31;0.60;;;0.60;;
20363;SDS011;10340;53.664;9.908;2023-03-01T08:34:01;0.40;;;0.40;;
20363;SDS011;10340;53.664;9.908;2023-03-01T08:36:30;0.50;;;0.50;;
20363;SDS011;10340;53.664;9.908;2023-03-01T08:38:59;0.50;;;0.50;;
20363;SDS011;10340;53.664;9.908;2023-03-01T08:41:26;0.50;;;0.50;;
20363;SDS011;10340;53.664;9.908;2023-03-01T08:43:55;0.50;;;0.50;;
20363;SDS011;10340;53.664;9.908;2023-03-01T08:46:24;0.50;;;0.50;;
20363;SDS011;10340;53.664;9.908;2023-03-01T08:48:52;0.40;;;0.40;;
20363;SDS011;10340;53.664;9.908;2023-03-01T08:51:19;0.43;;;0.43;;
20363;SDS011;10340;53.664;9.908;2023-03-01T08:53:47;0.60;;;0.60;;
20363;SDS011;10340;53.664;9.908;2023-03-01T08:56:15;0.43;;;0.43;;
20363;SDS011;10340;53.664;9.908;2023-03-01T08:58:43;0.40;;;0.40;;
20363;SDS011;10340;53.664;9.908;2023-03-01T09:01:13;0.40;;;0.40;;
20363;SDS011;10340;53.664;9.908;2023-03-01T09:03:41;0.50;;;0.50;;
20363;SDS011;10340;53.664;9.908;2023-03-01T09:06:08;0.40;;;0.40;;
20363;SDS011;10340;53.664;9.908;2023-03-01T09:08:37;0.50;;;0.50;;
20363;SDS011;10340;53.664;9.908;2023-03-01T09:11:06;0.40;;;0.40;;
20363;SDS011;10340;53.664;9.908;2023-03-01T09:13:34;0.47;;;0.47;;
20363;SDS011;10340;53.664;9.908;2023-03-01T09:16:02;0.40;;;0.40;;
20363;SDS011;10340;53.664;9.908;2023-03-01T09:18:32;0.40;;;0.40;;
20363;SDS011;10340;53.664;9.908;2023-03-01T09:21:01;0.60;;;0.60;;
20363;SDS011;10340;53.664;9.908;2023-03-01T09:23:32;0.60;;;0.60;;
20363;SDS011;10340;53.664;9.908;2023-03-01T09:25:59;0.50;;;0.50;;
20363;SDS011;10340;53.664;9.908;2023-03-01T09:28:26;0.40;;;0.40;;
20363;SDS011;10340;53.664;9.908;2023-03-01T09:30:53;0.40;;;0.40;;
20363;SDS011;10340;53.664;9.908;2023-03-01T09:33:20;0.47;;;0.47;;
20363;SDS011;10340;53.664;9.908;2023-03-01T09:35:48;0.30;;;0.30;;
20363;SDS011;10340;53.664;9.908;2023-03-01T09:38:15;0.40;;;0.40;;
20363;SDS011;10340;53.664;9.908;2023-03-01T09:40:42;0.50;;;0.50;;
20363;SDS011;10340;53.664;9.908;2023-03-01T09:43:15;0.33;;;0.33;;
20363;SDS011;10340;53.664;9.908;2023-03-01T09:45:46;0.40;;;0.40;;
20363;SDS011;10340;53.664;9.908;2023-03-01T09:48:16;0.37;;;0.37;;
20363;SDS011;10340;53.664;9.908;2023-03-01T09:50:48;0.30;;;0.30;;
20363;SDS011;10340;53.664;9.908;2023-03-01T09:53:17;0.40;;;0.40;;
20363;SDS011;10340;53.664;9.908;2023-03-01T09:55:48;0.40;;;0.40;;
20363;SDS011;10340;53.664;9.908;2023-03-01T09:58:27;0.30;;;0.30;;
20363;SDS011;10340;53.664;9.908;2023-03-01T10:01:09;0.40;;;0.40;;
20363;SDS011;10340;53.664;9.908;2023-03-01T10:03:53;0.30;;;0.30;;
20363;SDS011;10340;53.664;9.908;2023-03-01T10:06:32;0.40;;;0.40;;
20363;SDS011;10340;53.664;9.908;2023-03-01T10:09:00;0.33;;;0.33;;
20363;SDS011;10340;53.664;9.908;2023-03-01T10:11:32;0.40;;;0.40;;
20363;SDS011;10340;53.664;9.908;2023-03-01T10:14:05;0.57;;;0.57;;
20363;SDS011;10340;53.664;9.908;2023-03-01T10:16:42;0.37;;;0.37;;
20363;SDS011;10340;53.664;9.908;2023-03-01T10:19:14;0.40;;;0.40;;
20363;SDS011;10340;53.664;9.908;2023-03-01T10:21:54;0.30;;;0.30;;
20363;SDS011;10340;53.664;9.908;2023-03-01T10:24:27;0.30;;;0.30;;
20363;SDS011;10340;53.664;9.908;2023-03-01T10:26:58;0.30;;;0.30;;
20363;SDS011;10340;53.664;9.908;2023-03-01T10:29:31;0.40;;;0.40;;
20363;SDS011;10340;53.664;9.908;2023-03-01T10:32:04;0.30;;;0.30;;
20363;SDS011;10340;53.664;9.908;2023-03-01T10:34:32;0.40;;;0.40;;
20363;SDS011;10340;53.664;9.908;2023-03-01T10:37:09;0.40;;;0.40;;
20363;SDS011;10340;53.664;9.908;2023-03-01T10:39:54;0.30;;;0.30;;
20363;SDS011;10340;53.664;9.908;2023-03-01T10:42:25;0.50;;;0.50;;
20363;SDS011;10340;53.664;9.908;2023-03-01T10:44:53;0.50;;;0.50;;
20363;SDS011;10340;53.664;9.908;2023-03-01T10:47:21;0.47;;;0.47;;
20363;SDS011;10340;53.664;9.908;2023-03-01T10:49:53;0.40;;;0.40;;
20363;SDS011;10340;53.664;9.908;2023-03-01T10:52:32;0.40;;;0.40;;
20363;SDS011;10340;53.664;9.908;2023-03-01T10:55:01;0.30;;;0.30;;
20363;SDS011;10340;53.664;9.908;2023-03-01T10:57:32;0.30;;;0.30;;
20363;SDS011;10340;53.664;9.908;2023-03-01T11:00:15;0.40;;;0.40;;
20363;SDS011;10340;53.664;9.908;2023-03-01T11:02:48;0.30;;;0.30;;
20363;SDS011;10340;53.664;9.908;2023-03-01T11:05:19;0.40;;;0.40;;
20363;SDS011;10340;53.664;9.908;2023-03-01T11:07:51;0.30;;;0.30;;
20363;SDS011;10340;53.664;9.908;2023-03-01T11:10:19;0.40;;;0.40;;
20363;SDS011;10340;53.664;9.908;2023-03-01T11:12:50;0.40;;;0.40;;
20363;SDS011;10340;53.664;9.908;2023-03-01T11:15:21;0.40;;;0.40;;
20363;SDS011;10340;53.664;9.908;2023-03-01T11:17:51;0.40;;;0.40;;
20363;SDS011;10340;53.664;9.908;2023-03-01T11:20:21;0.40;;;0.40;;
20363;SDS011;10340;53.664;9.908;2023-03-01T11:22:54;0.40;;;0.40;;
20363;SDS011;10340;53.664;9.908;2023-03-01T11:25:24;0.50;;;0.50;;
20363;SDS011;10340;53.664;9.908;2023-03-01T11:27:53;0.40;;;0.40;;
20363;SDS011;10340;53.664;9.908;2023-03-01T11:30:23;0.30;;;0.30;;
20363;SDS011;10340;53.664;9.908;2023-03-01T11:32:56;0.43;;;0.43;;
20363;SDS011;10340;53.664;9.908;2023-03-01T11:35:31;0.30;;;0.30;;
20363;SDS011;10340;53.664;9.908;2023-03-01T11:38:05;0.40;;;0.40;;
20363;SDS011;10340;53.664;9.908;2023-03-01T11:40:44;0.40;;;0.40;;
20363;SDS011;10340;53.664;9.908;2023-03-01T11:43:17;0.40;;;0.40;;
20363;SDS011;10340;53.664;9.908;2023-03-01T11:46:00;0.40;;;0.40;;
20363;SDS011;10340;53.664;9.908;2023-03-01T11:48:50;0.40;;;0.40;;
20363;SDS011;10340;53.664;9.908;2023-03-01T11:51:34;0.40;;;0.40;;
20363;SDS011;10340;53.664;9.908;2023-03-01T11:54:19;0.40;;;0.40;;
20363;SDS011;10340;53.664;9.908;2023-03-01T11:56:55;0.30;;;0.30;;
20363;SDS011;10340;53.664;9.908;2023-03-01T11:59:45;0.40;;;0.40;;
20363;SDS011;10340;53.664;9.908;2023-03-01T12:02:39;0.40;;;0.40;;
20363;SDS011;10340;53.664;9.908;2023-03-01T12:05:24;0.30;;;0.30;;
20363;SDS011;10340;53.664;9.908;2023-03-01T12:08:14;0.30;;;0.30;;
20363;SDS011;10340;53.664;9.908;2023-03-01T12:10:51;0.40;;;0.40;;
20363;SDS011;10340;53.664;9.908;2023-03-01T12:13:31;0.45;;;0.45;;
20363;SDS011;10340;53.664;9.908;2023-03-01T12:16:23;0.47;;;0.47;;
20363;SDS011;10340;53.664;9.908;2023-03-01T12:21:57;0.40;;;0.40;;
20363;SDS011;10340;53.664;9.908;2023-03-01T12:24:46;0.30;;;0.30;;
20363;SDS011;10340;53.664;9.908;2023-03-01T12:27:39;0.40;;;0.40;;
20363;SDS011;10340;53.664;9.908;2023-03-01T12:30:23;0.40;;;0.40;;
20363;SDS011;10340;53.664;9.908;2023-03-01T12:33:02;0.30;;;0.30;;
20363;SDS011;10340;53.664;9.908;2023-03-01T12:35:50;0.30;;;0.30;;
20363;SDS011;10340;53.664;9.908;2023-03-01T12:38:37;0.30;;;0.30;;
20363;SDS011;10340;53.664;9.908;2023-03-01T12:44:20;0.35;;;0.35;;
20363;SDS011;10340;53.664;9.908;2023-03-01T12:47:03;0.30;;;0.30;;
20363;SDS011;10340;53.664;9.908;2023-03-01T12:49:38;0.30;;;0.30;;
20363;SDS011;10340;53.664;9.908;2023-03-01T12:52:11;0.40;;;0.40;;
20363;SDS011;10340;53.664;9.908;2023-03-01T12:54:43;0.28;;;0.28;;
20363;SDS011;10340;53.664;9.908;2023-03-01T12:57:12;0.30;;;0.30;;
20363;SDS011;10340;53.664;9.908;2023-03-01T12:59:47;0.30;;;0.30;;
20363;SDS011;10340;53.664;9.908;2023-03-01T13:02:26;0.30;;;0.30;;
20363;SDS011;10340;53.664;9.908;2023-03-01T13:05:06;0.30;;;0.30;;
20363;SDS011;10340;53.664;9.908;2023-03-01T13:07:48;0.40;;;0.40;;
20363;SDS011;10340;53.664;9.908;2023-03-01T13:10:22;0.30;;;0.30;;
20363;SDS011;10340;53.664;9.908;2023-03-01T13:13:10;0.40;;;0.40;;
20363;SDS011;10340;53.664;9.908;2023-03-01T13:15:41;0.30;;;0.30;;
20363;SDS011;10340;53.664;9.908;2023-03-01T13:18:27;0.30;;;0.30;;
20363;SDS011;10340;53.664;9.908;2023-03-01T13:20:55;0.30;;;0.30;;
20363;SDS011;10340;53.664;9.908;2023-03-01T13:23:26;0.40;;;0.40;;
20363;SDS011;10340;53.664;9.908;2023-03-01T13:26:03;0.40;;;0.40;;
20363;SDS011;10340;53.664;9.908;2023-03-01T13:28:41;0.30;;;0.30;;
20363;SDS011;10340;53.664;9.908;2023-03-01T13:37:22;0.30;;;0.30;;
20363;SDS011;10340;53.664;9.908;2023-03-01T13:39:54;0.30;;;0.30;;
20363;SDS011;10340;53.664;9.908;2023-03-01T13:42:36;0.40;;;0.40;;
20363;SDS011;10340;53.664;9.908;2023-03-01T13:47:53;0.40;;;0.40;;
20363;SDS011;10340;53.664;9.908;2023-03-01T13:50:27;0.40;;;0.40;;
20363;SDS011;10340;53.664;9.908;2023-03-01T13:52:56;0.40;;;0.40;;
20363;SDS011;10340;53.664;9.908;2023-03-01T13:55:27;0.40;;;0.40;;
20363;SDS011;10340;53.664;9.908;2023-03-01T13:58:04;0.40;;;0.40;;
20363;SDS011;10340;53.664;9.908;2023-03-01T14:00:54;0.30;;;0.30;;
20363;SDS011;10340;53.664;9.908;2023-03-01T14:03:22;0.40;;;0.40;;
20363;SDS011;10340;53.664;9.908;2023-03-01T14:06:01;0.20;;;0.20;;
20363;SDS011;10340;53.664;9.908;2023-03-01T14:08:33;0.40;;;0.40;;
20363;SDS011;10340;53.664;9.908;2023-03-01T14:14:26;0.40;;;0.40;;
20363;SDS011;10340;53.664;9.908;2023-03-01T14:17:08;0.40;;;0.40;;
20363;SDS011;10340;53.664;9.908;2023-03-01T14:19:54;0.40;;;0.40;;
20363;SDS011;10340;53.664;9.908;2023-03-01T14:22:27;0.30;;;0.30;;
20363;SDS011;10340;53.664;9.908;2023-03-01T14:24:56;0.40;;;0.40;;
20363;SDS011;10340;53.664;9.908;2023-03-01T14:27:26;0.30;;;0.30;;
20363;SDS011;10340;53.664;9.908;2023-03-01T14:29:57;0.35;;;0.35;;
20363;SDS011;10340;53.664;9.908;2023-03-01T14:32:26;0.30;;;0.30;;
20363;SDS011;10340;53.664;9.908;2023-03-01T14:34:55;0.30;;;0.30;;
20363;SDS011;10340;53.664;9.908;2023-03-01T14:37:25;0.30;;;0.30;;
20363;SDS011;10340;53.664;9.908;2023-03-01T14:39:55;0.38;;;0.38;;
20363;SDS011;10340;53.664;9.908;2023-03-01T14:42:24;0.40;;;0.40;;
20363;SDS011;10340;53.664;9.908;2023-03-01T14:44:55;0.30;;;0.30;;
20363;SDS011;10340;53.664;9.908;2023-03-01T14:47:25;0.40;;;0.40;;
20363;SDS011;10340;53.664;9.908;2023-03-01T14:49:56;0.20;;;0.20;;
20363;SDS011;10340;53.664;9.908;2023-03-01T14:52:28;0.30;;;0.30;;
20363;SDS011;10340;53.664;9.908;2023-03-01T14:55:01;0.40;;;0.40;;
20363;SDS011;10340;53.664;9.908;2023-03-01T14:57:30;0.30;;;0.30;;
20363;SDS011;10340;53.664;9.908;2023-03-01T14:59:58;0.35;;;0.35;;
20363;SDS011;10340;53.664;9.908;2023-03-01T15:02:29;0.30;;;0.30;;
20363;SDS011;10340;53.664;9.908;2023-03-01T15:04:57;0.20;;;0.20;;
20363;SDS011;10340;53.664;9.908;2023-03-01T15:07:29;0.40;;;0.40;;
20363;SDS011;10340;53.664;9.908;2023-03-01T15:09:58;0.40;;;0.40;;
20363;SDS011;10340;53.664;9.908;2023-03-01T15:12:36;0.30;;;0.30;;
20363;SDS011;10340;53.664;9.908;2023-03-01T15:18:03;0.20;;;0.20;;
20363;SDS011;10340;53.664;9.908;2023-03-01T15:20:38;0.30;;;0.30;;
20363;SDS011;10340;53.664;9.908;2023-03-01T15:23:12;0.35;;;0.35;;
20363;SDS011;10340;53.664;9.908;2023-03-01T15:25:49;0.30;;;0.30;;
20363;SDS011;10340;53.664;9.908;2023-03-01T15:28:22;0.20;;;0.20;;
20363;SDS011;10340;53.664;9.908;2023-03-01T15:30:54;0.30;;;0.30;;